createdAt,value
2018-07-22T00:02:16.493Z,96414.36
2018-07-22T00:04:44.516Z,96412.08
2018-07-22T00:07:12.588Z,96407.70
2018-07-22T00:09:40.520Z,96405.88
2018-07-22T00:12:08.916Z,96410.63
2018-07-22T00:14:36.995Z,96413.91
2018-07-22T00:17:05.057Z,96414.91
2018-07-22T00:19:33.131Z,96405.27
2018-07-22T00:22:02.660Z,96402.89
2018-07-22T00:24:30.768Z,96409.16
2018-07-22T00:26:58.656Z,96409.39
2018-07-22T00:29:26.568Z,96404.13
2018-07-22T00:31:54.804Z,96406.88
2018-07-22T00:34:22.792Z,96405.88
2018-07-22T00:36:50.769Z,96408.77
2018-07-22T00:39:18.731Z,96405.95
2018-07-22T00:41:46.868Z,96402.38
2018-07-22T00:44:14.875Z,96403.12
2018-07-22T00:46:42.860Z,96401.07
2018-07-22T00:49:10.911Z,96407.25
2018-07-22T00:51:38.883Z,96413.00
2018-07-22T00:54:06.959Z,96407.86
2018-07-22T00:56:35.332Z,96406.79
2018-07-22T00:59:03.295Z,96405.72
2018-07-22T01:01:31.432Z,96412.15
2018-07-22T01:03:59.584Z,96407.56
2018-07-22T01:06:27.524Z,96404.88
2018-07-22T01:08:55.493Z,96405.20
2018-07-22T01:11:23.455Z,96411.14
2018-07-22T01:13:51.424Z,96404.42
2018-07-22T01:16:19.388Z,96403.45
2018-07-22T01:18:47.363Z,96400.59
2018-07-22T01:21:15.328Z,96404.19
2018-07-22T01:23:43.307Z,96403.05
2018-07-22T01:26:11.581Z,96395.16
2018-07-22T01:28:39.560Z,96394.25
2018-07-22T01:31:07.737Z,96394.55
2018-07-22T01:33:35.896Z,96393.80
2018-07-22T01:36:03.731Z,96395.84
2018-07-22T01:38:31.607Z,96389.90
2018-07-22T01:40:59.489Z,96400.75
2018-07-22T01:43:27.560Z,96397.47
2018-07-22T01:45:55.504Z,96396.84
2018-07-22T01:48:23.395Z,96393.56
2018-07-22T01:50:51.363Z,96397.01
2018-07-22T01:53:19.323Z,96398.77
2018-07-22T01:55:47.311Z,96396.17
2018-07-22T01:58:15.268Z,96395.16
2018-07-22T02:00:43.240Z,96398.77
2018-07-22T02:03:11.392Z,96398.15
2018-07-22T02:05:39.251Z,96399.22
2018-07-22T02:08:07.148Z,96395.33
2018-07-22T02:10:35.116Z,96389.83
2018-07-22T02:13:02.981Z,96393.95
2018-07-22T02:15:30.956Z,96393.73
2018-07-22T02:17:58.912Z,96378.73
2018-07-22T02:20:27.092Z,96389.90
2018-07-22T02:22:54.956Z,96382.85
2018-07-22T02:25:22.934Z,96391.81
2018-07-22T02:27:50.892Z,96385.67
2018-07-22T02:30:18.848Z,96378.20
2018-07-22T02:32:46.836Z,96379.18
2018-07-22T02:35:14.928Z,96375.28
2018-07-22T02:37:42.977Z,96376.58
2018-07-22T02:40:10.941Z,96376.81
2018-07-22T02:42:38.916Z,96383.53
2018-07-22T02:45:06.824Z,96380.94
2018-07-22T02:47:34.752Z,96381.78
2018-07-22T02:50:02.992Z,96380.48
2018-07-22T02:52:30.998Z,96375.90
2018-07-22T02:54:58.960Z,96379.18
2018-07-22T02:57:27.069Z,96377.42
2018-07-22T02:59:55.136Z,96377.66
2018-07-22T03:02:23.073Z,96378.73
2018-07-22T03:04:51.024Z,96379.25
2018-07-22T03:07:18.910Z,96376.06
2018-07-22T03:09:46.777Z,96377.03
2018-07-22T03:12:14.735Z,96380.94
2018-07-22T03:14:42.820Z,96387.91
2018-07-22T03:17:12.004Z,96389.13
2018-07-22T03:19:40.096Z,96386.91
2018-07-22T03:22:08.177Z,96384.25
2018-07-22T03:24:36.450Z,96389.13
2018-07-22T03:27:04.712Z,96388.83
2018-07-22T03:29:32.678Z,96386.00
2018-07-22T03:32:00.631Z,96383.77
2018-07-22T03:34:28.620Z,96384.70
2018-07-22T03:36:56.584Z,96386.00
2018-07-22T03:39:24.444Z,96387.66
2018-07-22T03:41:52.506Z,96390.64
2018-07-22T03:44:20.587Z,96386.00
2018-07-22T03:46:48.464Z,96390.58
2018-07-22T03:49:16.628Z,96396.69
2018-07-22T03:51:44.599Z,96394.70
2018-07-22T03:54:12.524Z,96397.47
2018-07-22T03:56:40.436Z,96399.67
2018-07-22T03:59:08.721Z,96401.52
2018-07-22T04:01:36.776Z,96403.34
2018-07-22T04:04:04.756Z,96409.45
2018-07-22T04:06:32.803Z,96408.48
2018-07-22T04:09:00.801Z,96401.52
2018-07-22T04:11:28.759Z,96405.33
2018-07-22T04:13:56.831Z,96403.19
2018-07-22T04:16:24.773Z,96401.66
2018-07-22T04:18:54.055Z,96404.03
2018-07-22T04:21:24.012Z,96401.30
2018-07-22T04:23:51.975Z,96404.64
2018-07-22T04:26:20.897Z,96407.17
2018-07-22T04:28:49.260Z,96408.48
2018-07-22T04:31:17.448Z,96416.73
2018-07-22T04:33:45.392Z,96411.08
2018-07-22T04:36:13.371Z,96415.98
2018-07-22T04:38:41.329Z,96415.66
2018-07-22T04:41:09.406Z,96415.30
2018-07-22T04:43:37.351Z,96415.82
2018-07-22T04:46:05.252Z,96417.05
2018-07-22T04:48:33.176Z,96416.66
2018-07-22T04:51:01.268Z,96419.95
2018-07-22T04:53:29.261Z,96418.65
2018-07-22T04:55:57.300Z,96420.27
2018-07-22T04:58:25.289Z,96414.81
2018-07-22T05:00:53.367Z,96425.02
2018-07-22T05:03:21.320Z,96422.41
2018-07-22T05:05:49.292Z,96425.08
2018-07-22T05:08:17.468Z,96426.99
2018-07-22T05:10:45.440Z,96427.38
2018-07-22T05:13:13.388Z,96427.45
2018-07-22T05:15:41.272Z,96429.44
2018-07-22T05:18:09.211Z,96427.52
2018-07-22T05:20:37.249Z,96433.78
2018-07-22T05:23:05.280Z,96429.20
2018-07-22T05:25:33.368Z,96434.80
2018-07-22T05:28:01.320Z,96434.50
2018-07-22T05:30:29.261Z,96441.45
2018-07-22T05:32:57.261Z,96443.50
2018-07-22T05:35:25.200Z,96439.08
2018-07-22T05:37:53.104Z,96442.59
2018-07-22T05:40:21.157Z,96447.78
2018-07-22T05:42:49.128Z,96448.95
2018-07-22T05:45:17.311Z,96450.80
2018-07-22T05:47:45.279Z,96446.88
2018-07-22T05:50:13.245Z,96451.91
2018-07-22T05:52:41.336Z,96451.09
2018-07-22T05:55:09.387Z,96447.72
2018-07-22T05:57:37.350Z,96453.08
2018-07-22T06:00:06.698Z,96458.97
2018-07-22T06:02:34.824Z,96461.34
2018-07-22T06:05:02.895Z,96459.24
2018-07-22T06:07:30.844Z,96470.03
2018-07-22T06:09:58.712Z,96473.14
2018-07-22T06:12:26.604Z,96475.38
2018-07-22T06:14:54.768Z,96469.56
2018-07-22T06:17:22.751Z,96468.41
2018-07-22T06:19:50.816Z,96472.50
2018-07-22T06:22:18.784Z,96481.66
2018-07-22T06:24:46.800Z,96476.55
2018-07-22T06:27:14.820Z,96480.69
2018-07-22T06:29:42.877Z,96483.62
2018-07-22T06:32:11.176Z,96482.81
2018-07-22T06:34:39.108Z,96482.81
2018-07-22T06:37:07.489Z,96481.18
2018-07-22T06:39:35.377Z,96485.56
2018-07-22T06:42:03.400Z,96480.95
2018-07-22T06:44:31.420Z,96480.40
2018-07-22T06:46:59.392Z,96488.37
2018-07-22T06:49:27.256Z,96480.63
2018-07-22T06:51:55.308Z,96485.72
2018-07-22T06:54:23.285Z,96481.84
2018-07-22T06:56:51.268Z,96489.04
2018-07-22T06:59:19.207Z,96481.80
2018-07-22T07:01:47.102Z,96487.45
2018-07-22T07:04:15.075Z,96487.37
2018-07-22T07:06:43.123Z,96484.53
2018-07-22T07:09:12.048Z,96484.65
2018-07-22T07:11:40.321Z,96480.02
2018-07-22T07:14:08.709Z,96480.69
2018-07-22T07:16:36.882Z,96485.34
2018-07-22T07:19:05.120Z,96490.47
2018-07-22T07:21:32.980Z,96485.50
2018-07-22T07:24:00.877Z,96491.64
2018-07-22T07:26:28.732Z,96492.48
2018-07-22T07:28:56.704Z,96493.63
2018-07-22T07:31:24.652Z,96497.63
2018-07-22T07:33:52.553Z,96495.70
2018-07-22T07:36:20.604Z,96499.19
2018-07-22T07:38:48.594Z,96501.02
2018-07-22T07:41:16.572Z,96501.02
2018-07-22T07:43:44.716Z,96503.63
2018-07-22T07:46:12.692Z,96502.53
2018-07-22T07:48:40.655Z,96500.32
2018-07-22T07:51:08.632Z,96499.39
2018-07-22T07:53:36.564Z,96497.33
2018-07-22T07:56:04.567Z,96501.60
2018-07-22T07:58:32.668Z,96504.94
2018-07-22T08:01:00.712Z,96499.36
2018-07-22T08:03:28.672Z,96496.42
2018-07-22T08:05:56.653Z,96496.88
2018-07-22T08:08:24.604Z,96499.42
2018-07-22T08:10:52.744Z,96494.20
2018-07-22T08:13:20.803Z,96500.51
2018-07-22T08:15:48.722Z,96499.39
2018-07-22T08:18:16.701Z,96497.34
2018-07-22T08:20:45.610Z,96500.02
2018-07-22T08:26:24.817Z,96501.58
2018-07-22T08:29:03.976Z,96504.21
2018-07-22T08:31:31.950Z,96501.81
2018-07-22T08:33:59.876Z,96495.27
2018-07-22T08:36:27.801Z,96504.76
2018-07-22T08:38:55.736Z,96506.93
2018-07-22T08:41:23.619Z,96509.55
2018-07-22T08:43:51.580Z,96512.70
2018-07-22T08:46:19.544Z,96512.89
2018-07-22T08:48:49.048Z,96512.82
2018-07-22T08:51:17.016Z,96521.77
2018-07-22T08:53:45.031Z,96517.92
2018-07-22T08:56:12.904Z,96519.02
2018-07-22T08:58:40.970Z,96521.10
2018-07-22T09:01:08.905Z,96523.06
2018-07-22T09:03:36.840Z,96520.00
2018-07-22T09:06:05.013Z,96525.73
2018-07-22T09:08:32.881Z,96525.55
2018-07-22T09:11:00.778Z,96529.34
2018-07-22T09:13:28.759Z,96526.77
2018-07-22T09:15:56.689Z,96532.84
2018-07-22T09:18:24.991Z,96532.77
2018-07-22T09:20:52.947Z,96528.83
2018-07-22T09:23:20.918Z,96530.36
2018-07-22T09:25:48.891Z,96527.76
2018-07-22T09:28:16.896Z,96537.34
2018-07-22T09:30:44.828Z,96540.73
2018-07-22T09:33:12.744Z,96536.25
2018-07-22T09:35:40.664Z,96540.63
2018-07-22T09:38:08.628Z,96534.62
2018-07-22T09:40:36.633Z,96543.23
2018-07-22T09:43:04.780Z,96542.25
2018-07-22T09:45:32.877Z,96541.92
2018-07-22T09:48:00.942Z,96541.48
2018-07-22T09:50:28.900Z,96541.16
2018-07-22T09:52:56.876Z,96535.61
2018-07-22T09:55:24.754Z,96538.88
2018-07-22T09:57:52.716Z,96538.34
2018-07-22T10:00:26.277Z,96539.65
2018-07-22T10:02:54.262Z,96538.20
2018-07-22T10:05:22.146Z,96536.25
2018-07-22T10:07:50.120Z,96532.73
2018-07-22T10:10:18.193Z,96531.95
2018-07-22T10:12:46.148Z,96535.24
2018-07-22T10:15:14.260Z,96529.86
2018-07-22T10:17:42.423Z,96532.86
2018-07-22T10:20:10.341Z,96533.70
2018-07-22T10:22:38.539Z,96532.63
2018-07-22T10:25:06.457Z,96533.79
2018-07-22T10:27:34.372Z,96536.75
2018-07-22T10:30:02.232Z,96537.22
2018-07-22T10:32:30.210Z,96541.16
2018-07-22T10:34:58.186Z,96545.31
2018-07-22T10:37:26.256Z,96539.18
2018-07-22T10:39:54.339Z,96531.34
2018-07-22T10:42:22.500Z,96532.44
2018-07-22T10:44:50.880Z,96529.32
2018-07-22T10:47:18.861Z,96536.59
2018-07-22T10:49:46.801Z,96539.84
2018-07-22T10:52:15.192Z,96523.80
2018-07-22T10:54:43.171Z,96532.77
2018-07-22T10:57:11.357Z,96534.16
2018-07-22T10:59:39.600Z,96533.97
2018-07-22T11:02:07.819Z,96535.44
2018-07-22T11:04:35.769Z,96531.36
2018-07-22T11:07:04.047Z,96532.14
2018-07-22T11:09:32.327Z,96522.53
2018-07-22T11:12:00.295Z,96531.44
2018-07-22T11:14:28.578Z,96528.38
2018-07-22T11:16:56.616Z,96522.56
2018-07-22T11:19:24.857Z,96518.53
2018-07-22T11:21:52.813Z,96520.92
2018-07-22T11:24:20.779Z,96516.53
2018-07-22T11:26:49.097Z,96510.37
2018-07-22T11:29:17.020Z,96516.72
2018-07-22T11:31:45.045Z,96516.25
2018-07-22T11:34:13.224Z,96521.93
2018-07-22T11:36:41.149Z,96517.78
2018-07-22T11:39:10.198Z,96516.23
2018-07-22T11:41:38.820Z,96509.42
2018-07-22T11:44:07.312Z,96514.08
2018-07-22T11:46:35.809Z,96520.92
2018-07-22T11:49:03.952Z,96519.80
2018-07-22T11:51:32.038Z,96519.67
2018-07-22T11:54:00.368Z,96513.23
2018-07-22T11:56:28.653Z,96513.59
2018-07-22T11:58:56.917Z,96511.44
2018-07-22T12:01:25.107Z,96514.89
2018-07-22T12:03:53.043Z,96506.69
2018-07-22T12:06:21.237Z,96521.34
2018-07-22T12:08:49.407Z,96517.63
2018-07-22T12:11:17.893Z,96513.45
2018-07-22T12:13:46.265Z,96509.58
2018-07-22T12:16:14.215Z,96514.62
2018-07-22T12:18:42.204Z,96520.92
2018-07-22T12:21:10.539Z,96516.50
2018-07-22T12:23:38.775Z,96511.24
2018-07-22T12:26:06.972Z,96510.83
2018-07-22T12:28:35.112Z,96506.61
2018-07-22T12:31:03.745Z,96507.72
2018-07-22T12:33:31.789Z,96496.84
2018-07-22T12:35:59.756Z,96503.98
2018-07-22T12:38:27.973Z,96498.09
2018-07-22T12:40:56.001Z,96499.09
2018-07-22T12:43:23.939Z,96494.00
2018-07-22T12:45:51.848Z,96489.48
2018-07-22T12:48:19.823Z,96487.80
2018-07-22T12:50:47.868Z,96494.20
2018-07-22T12:53:15.868Z,96490.42
2018-07-22T12:55:43.809Z,96493.78
2018-07-22T12:58:11.788Z,96490.56
2018-07-22T13:00:39.752Z,96496.55
2018-07-22T13:03:07.838Z,96495.07
2018-07-22T13:05:36.452Z,96496.97
2018-07-22T13:08:04.351Z,96494.14
2018-07-22T13:10:32.425Z,96494.77
2018-07-22T13:13:00.392Z,96496.52
2018-07-22T13:15:28.283Z,96511.00
2018-07-22T13:17:56.252Z,96508.73
2018-07-22T13:20:24.316Z,96513.00
2018-07-22T13:22:52.296Z,96511.92
2018-07-22T13:25:20.260Z,96515.85
2018-07-22T13:27:48.349Z,96514.34
2018-07-22T13:30:16.396Z,96508.13
2018-07-22T13:32:44.268Z,96508.14
2018-07-22T13:35:12.544Z,96510.52
2018-07-22T13:37:40.620Z,96507.59
2018-07-22T13:40:08.598Z,96509.66
2018-07-22T13:42:36.555Z,96514.44
2018-07-22T13:45:05.095Z,96517.50
2018-07-22T13:47:33.016Z,96509.24
2018-07-22T13:50:00.989Z,96504.17
2018-07-22T13:52:29.132Z,96513.51
2018-07-22T13:54:57.097Z,96509.45
2018-07-22T13:57:25.081Z,96511.03
2018-07-22T13:59:53.025Z,96511.64
2018-07-22T14:02:21.028Z,96512.58
2018-07-22T14:04:48.988Z,96513.63
2018-07-22T14:07:16.996Z,96515.75
2018-07-22T14:09:45.105Z,96514.44
2018-07-22T14:12:13.000Z,96515.75
2018-07-22T14:14:40.972Z,96517.17
2018-07-22T14:17:08.941Z,96514.12
2018-07-22T14:19:37.120Z,96514.23
2018-07-22T14:22:05.088Z,96514.42
2018-07-22T14:24:33.057Z,96513.53
2018-07-22T14:27:01.013Z,96503.67
2018-07-22T14:29:29.001Z,96503.09
2018-07-22T14:31:56.975Z,96513.79
2018-07-22T14:34:25.028Z,96509.73
2018-07-22T14:36:53.150Z,96507.88
2018-07-22T14:39:21.073Z,96512.88
2018-07-22T14:41:49.132Z,96514.02
2018-07-22T14:44:17.103Z,96505.28
2018-07-22T14:46:45.310Z,96508.41
2018-07-22T14:49:13.224Z,96508.97
2018-07-22T14:51:41.226Z,96511.70
2018-07-22T14:54:09.243Z,96513.27
2018-07-22T14:56:37.161Z,96508.48
2018-07-22T14:59:05.223Z,96517.05
2018-07-22T15:01:33.296Z,96516.55
2018-07-22T15:04:15.027Z,96511.98
2018-07-22T15:06:44.173Z,96504.41
2018-07-22T15:09:12.155Z,96509.16
2018-07-22T15:11:40.250Z,96505.59
2018-07-22T15:14:08.401Z,96503.39
2018-07-22T15:16:36.237Z,96506.24
2018-07-22T15:19:04.309Z,96501.70
2018-07-22T15:21:32.255Z,96509.32
2018-07-22T15:24:00.379Z,96509.32
2018-07-22T15:26:28.444Z,96510.20
2018-07-22T15:28:56.428Z,96506.13
2018-07-22T15:31:24.357Z,96506.73
2018-07-22T15:33:52.249Z,96506.44
2018-07-22T15:36:20.197Z,96504.31
2018-07-22T15:38:48.184Z,96506.98
2018-07-22T15:41:16.160Z,96504.05
2018-07-22T15:43:44.300Z,96507.87
2018-07-22T15:46:12.305Z,96509.56
2018-07-22T15:48:40.293Z,96513.84
2018-07-22T15:51:08.347Z,96508.66
2018-07-22T15:53:36.404Z,96508.59
2018-07-22T15:56:04.510Z,96511.99
2018-07-22T15:58:32.351Z,96511.59
2018-07-22T16:01:00.320Z,96513.02
2018-07-22T16:03:28.297Z,96507.03
2018-07-22T16:05:56.220Z,96509.44
2018-07-22T16:08:24.221Z,96506.71
2018-07-22T16:10:52.388Z,96500.70
2018-07-22T16:13:20.364Z,96503.98
2018-07-22T16:15:48.331Z,96503.55
2018-07-22T16:18:16.307Z,96503.67
2018-07-22T16:20:44.364Z,96505.30
2018-07-22T16:23:12.385Z,96509.11
2018-07-22T16:25:40.415Z,96516.73
2018-07-22T16:28:08.551Z,96510.08
2018-07-22T16:30:36.537Z,96511.05
2018-07-22T16:33:04.732Z,96513.22
2018-07-22T16:35:32.696Z,96514.40
2018-07-22T16:38:00.770Z,96515.52
2018-07-22T16:40:28.716Z,96515.51
2018-07-22T16:42:56.608Z,96512.58
2018-07-22T16:45:24.677Z,96515.22
2018-07-22T16:47:52.844Z,96519.77
2018-07-22T16:50:20.797Z,96519.24
2018-07-22T16:52:48.781Z,96513.91
2018-07-22T16:55:16.716Z,96512.67
2018-07-22T16:57:44.565Z,96508.33
2018-07-22T17:00:12.457Z,96506.69
2018-07-22T17:02:40.465Z,96508.40
2018-07-22T17:05:08.422Z,96515.03
2018-07-22T17:07:36.408Z,96510.89
2018-07-22T17:10:04.457Z,96513.48
2018-07-22T17:12:32.560Z,96513.79
2018-07-22T17:15:00.616Z,96515.09
2018-07-22T17:17:29.043Z,96517.71
2018-07-22T17:19:57.326Z,96514.13
2018-07-22T17:22:25.332Z,96519.36
2018-07-22T17:24:53.313Z,96520.88
2018-07-22T17:27:21.443Z,96531.80
2018-07-22T17:29:49.572Z,96529.86
2018-07-22T17:32:17.844Z,96528.68
2018-07-22T17:34:46.715Z,96534.34
2018-07-22T17:37:14.685Z,96535.34
2018-07-22T17:39:42.845Z,96533.16
2018-07-22T17:42:11.028Z,96535.09
2018-07-22T17:44:39.032Z,96539.39
2018-07-22T17:47:07.100Z,96540.91
2018-07-22T17:49:35.040Z,96538.18
2018-07-22T17:52:02.970Z,96543.75
2018-07-22T17:54:31.010Z,96547.20
2018-07-22T17:56:59.041Z,96542.80
2018-07-22T17:59:26.904Z,96543.84
2018-07-22T18:01:55.004Z,96554.38
2018-07-22T18:04:23.051Z,96547.76
2018-07-22T18:06:51.086Z,96556.10
2018-07-22T18:09:19.201Z,96559.22
2018-07-22T18:11:47.288Z,96559.86
2018-07-22T18:14:15.715Z,96557.90
2018-07-22T18:16:43.735Z,96556.37
2018-07-22T18:19:11.991Z,96559.68
2018-07-22T18:21:40.234Z,96558.98
2018-07-22T18:24:08.217Z,96554.69
2018-07-22T18:26:36.213Z,96566.27
2018-07-22T18:29:04.300Z,96565.79
2018-07-22T18:31:32.469Z,96566.88
2018-07-22T18:34:00.574Z,96568.81
2018-07-22T18:36:28.596Z,96570.39
2018-07-22T18:38:56.567Z,96568.31
2018-07-22T18:41:24.836Z,96565.81
2018-07-22T18:43:52.784Z,96569.97
2018-07-22T18:46:20.972Z,96574.10
2018-07-22T18:48:49.101Z,96573.13
2018-07-22T18:51:17.225Z,96573.77
2018-07-22T18:53:45.476Z,96574.48
2018-07-22T18:56:13.820Z,96584.91
2018-07-22T18:58:41.844Z,96595.78
2018-07-22T19:01:09.920Z,96596.64
2018-07-22T19:03:38.015Z,96599.70
2018-07-22T19:06:06.077Z,96605.66
2018-07-22T19:08:34.017Z,96604.46
2018-07-22T19:11:02.000Z,96610.05
2018-07-22T19:13:30.085Z,96608.98
2018-07-22T19:15:58.040Z,96613.89
2018-07-22T19:18:26.004Z,96610.91
2018-07-22T19:20:53.976Z,96610.54
2018-07-22T19:23:22.092Z,96620.52
2018-07-22T19:25:50.431Z,96629.64
2018-07-22T19:28:18.495Z,96634.86
2018-07-22T19:30:55.035Z,96629.67
2018-07-22T19:33:23.032Z,96625.01
2018-07-22T19:35:51.612Z,96635.25
2018-07-22T19:38:19.940Z,96634.34
2018-07-22T19:40:47.957Z,96637.09
2018-07-22T19:43:15.997Z,96645.47
2018-07-22T19:45:44.131Z,96643.16
2018-07-22T19:48:12.477Z,96643.23
2018-07-22T19:50:40.456Z,96638.58
2018-07-22T19:53:08.427Z,96641.03
2018-07-22T19:55:36.536Z,96635.48
2018-07-22T19:58:04.988Z,96631.91
2018-07-22T20:00:33.205Z,96634.11
2018-07-22T20:03:01.347Z,96634.73
2018-07-22T20:05:29.725Z,96652.12
2018-07-22T20:07:57.671Z,96641.66
2018-07-22T20:10:25.716Z,96644.38
2018-07-22T20:12:53.924Z,96642.95
2018-07-22T20:15:21.981Z,96646.86
2018-07-22T20:17:50.065Z,96656.34
2018-07-22T20:20:18.135Z,96651.98
2018-07-22T20:22:46.308Z,96652.61
2018-07-22T20:25:14.280Z,96654.06
2018-07-22T20:27:42.212Z,96655.04
2018-07-22T20:30:10.200Z,96646.25
2018-07-22T20:32:38.284Z,96651.46
2018-07-22T20:35:06.420Z,96651.91
2018-07-22T20:37:34.437Z,96643.64
2018-07-22T20:40:02.510Z,96647.00
2018-07-22T20:42:30.560Z,96646.32
2018-07-22T20:44:58.736Z,96641.18
2018-07-22T20:47:26.816Z,96638.66
2018-07-22T20:49:54.835Z,96642.70
2018-07-22T20:52:22.760Z,96650.14
2018-07-22T20:54:50.920Z,96646.40
2018-07-22T20:57:19.099Z,96650.83
2018-07-22T20:59:47.068Z,96645.09
2018-07-22T21:02:15.030Z,96644.55
2018-07-22T21:04:43.112Z,96651.61
2018-07-22T21:07:11.371Z,96649.92
2018-07-22T21:09:39.355Z,96653.76
2018-07-22T21:12:51.252Z,96647.93
2018-07-22T21:15:19.645Z,96651.84
2018-07-22T21:17:49.026Z,96658.73
2018-07-22T21:20:18.166Z,96657.89
2018-07-22T21:22:46.248Z,96656.59
2018-07-22T21:25:14.884Z,96657.89
2018-07-22T21:27:42.856Z,96655.13
2018-07-22T21:30:11.558Z,96661.08
2018-07-22T21:32:39.731Z,96663.84
2018-07-22T21:35:08.267Z,96667.08
2018-07-22T21:37:36.364Z,96668.90
2018-07-22T21:40:05.176Z,96667.08
2018-07-22T21:42:33.419Z,96671.98
2018-07-22T21:45:02.120Z,96671.14
2018-07-22T21:47:30.160Z,96670.45
2018-07-22T21:49:58.155Z,96673.65
2018-07-22T21:52:26.249Z,96677.66
2018-07-22T21:54:54.308Z,96676.09
2018-07-22T21:57:22.303Z,96679.48
2018-07-22T21:59:50.696Z,96676.03
2018-07-22T22:02:18.704Z,96678.63
2018-07-22T22:04:46.680Z,96678.86
2018-07-22T22:07:14.849Z,96678.80
2018-07-22T22:09:43.146Z,96683.45
2018-07-22T22:12:11.204Z,96686.96
2018-07-22T22:14:39.066Z,96689.11
2018-07-22T22:17:07.159Z,96689.66
2018-07-22T22:19:35.196Z,96689.34
2018-07-22T22:22:03.324Z,96685.76
2018-07-22T22:24:31.377Z,96691.03
2018-07-22T22:26:59.528Z,96685.14
2018-07-22T22:29:27.503Z,96680.68
2018-07-22T22:31:55.757Z,96674.78
2018-07-22T22:34:24.255Z,96676.16
2018-07-22T22:36:52.216Z,96677.23
2018-07-22T22:39:20.300Z,96683.28
2018-07-22T22:41:48.236Z,96677.38
2018-07-22T22:44:16.208Z,96676.66
2018-07-22T22:46:44.189Z,96669.47
2018-07-22T22:49:12.376Z,96667.66
2018-07-22T22:51:40.348Z,96677.58
2018-07-22T22:54:08.273Z,96677.44
2018-07-22T22:56:36.492Z,96672.81
2018-07-22T22:59:17.139Z,96674.96
2018-07-22T23:01:45.354Z,96676.00
2018-07-22T23:04:13.602Z,96670.02
2018-07-22T23:06:41.672Z,96675.19
2018-07-22T23:09:12.358Z,96679.09
2018-07-22T23:11:40.779Z,96680.56
2018-07-22T23:14:09.056Z,96676.95
2018-07-22T23:16:37.947Z,96678.02
2018-07-22T23:19:06.116Z,96682.16
2018-07-22T23:21:34.403Z,96681.92
2018-07-22T23:24:02.576Z,96684.84
2018-07-22T23:26:31.351Z,96690.68
2018-07-22T23:28:59.739Z,96693.28
2018-07-22T23:31:27.808Z,96694.58
2018-07-22T23:33:56.100Z,96690.36
2018-07-22T23:36:24.056Z,96696.11
2018-07-22T23:38:52.132Z,96686.39
2018-07-22T23:41:20.229Z,96688.30
2018-07-22T23:43:48.295Z,96689.61
2018-07-22T23:46:16.464Z,96690.59
2018-07-22T23:48:44.824Z,96684.86
2018-07-22T23:51:12.963Z,96687.17
2018-07-22T23:53:41.285Z,96688.16
2018-07-22T23:56:09.235Z,96683.27
2018-07-22T23:58:37.203Z,96680.80
